Time;durP1;ratioP1;P1;durP2;ratioP2;P2;SDS_P1;SDS_P2;PMS_P1;PMS_P2;Temp;Humidity;BMP_temperature;BMP_pressure;BME280_temperature;BME280_humidity;BME280_pressure;Samples;Min_cycle;Max_cycle;Signal;HPM_P1;HPM_P2
2023/08/25 00:01:33;;;;;;;36.70;31.58;;;19.30;99.90;;;;;;5078590;28;20043;-73
2023/08/25 00:04:00;;;;;;;38.45;31.35;;;19.30;99.90;;;;;;5079949;27;20380;-72
2023/08/25 00:06:27;;;;;;;39.00;33.17;;;19.30;99.90;;;;;;5095191;28;20051;-72
2023/08/25 00:08:54;;;;;;;36.88;32.58;;;19.20;99.90;;;;;;5097744;28;20461;-72
2023/08/25 00:11:21;;;;;;;37.72;32.95;;;19.20;99.90;;;;;;5098686;27;20105;-72
2023/08/25 00:13:49;;;;;;;39.42;33.58;;;19.20;99.90;;;;;;5096027;27;20040;-71
2023/08/25 00:16:16;;;;;;;40.38;32.83;;;19.20;99.90;;;;;;5079349;27;20040;-70
2023/08/25 00:18:45;;;;;;;41.40;33.95;;;19.10;99.90;;;;;;5114382;27;20054;-71
2023/08/25 00:21:12;;;;;;;41.15;33.85;;;19.20;99.90;;;;;;5114986;27;20410;-70
2023/08/25 00:23:39;;;;;;;43.22;34.60;;;19.10;99.90;;;;;;5079802;28;20435;-69
2023/08/25 00:26:08;;;;;;;45.13;34.75;;;19.10;99.90;;;;;;5096688;27;20097;-69
2023/08/25 00:28:35;;;;;;;43.85;34.42;;;19.10;99.90;;;;;;5078423;27;20156;-70
2023/08/25 00:31:03;;;;;;;42.28;34.60;;;19.10;99.90;;;;;;5096572;27;20051;-69
2023/08/25 00:33:30;;;;;;;46.83;36.60;;;19.00;99.90;;;;;;5096192;27;20484;-69
2023/08/25 00:35:57;;;;;;;43.63;36.70;;;19.00;99.90;;;;;;5095568;27;20059;-69
2023/08/25 00:38:28;;;;;;;46.72;37.67;;;19.00;99.90;;;;;;5095380;27;20089;-70
2023/08/25 00:40:54;;;;;;;44.90;37.45;;;19.00;99.90;;;;;;5096395;27;20082;-70
2023/08/25 00:43:21;;;;;;;43.55;36.97;;;19.00;99.90;;;;;;5095807;28;20053;-70
2023/08/25 00:45:48;;;;;;;44.50;36.83;;;19.00;99.90;;;;;;5096055;27;20047;-69
2023/08/25 00:48:17;;;;;;;44.83;36.88;;;19.10;99.90;;;;;;5078719;27;20055;-69
2023/08/25 00:50:44;;;;;;;48.85;36.25;;;19.10;99.90;;;;;;5078519;28;20044;-70
2023/08/25 00:53:11;;;;;;;52.33;39.15;;;19.10;99.90;;;;;;5094531;28;20035;-70
2023/08/25 00:55:38;;;;;;;43.13;35.30;;;19.20;99.90;;;;;;5116760;27;20055;-70
2023/08/25 00:58:07;;;;;;;44.88;36.70;;;19.30;99.90;;;;;;5116112;27;20089;-70
2023/08/25 01:00:35;;;;;;;43.55;36.15;;;19.30;99.90;;;;;;5115791;27;20470;-70
2023/08/25 01:03:02;;;;;;;43.08;35.83;;;19.30;99.90;;;;;;5115390;27;20047;-70
2023/08/25 01:05:31;;;;;;;49.97;38.90;;;19.30;99.90;;;;;;5116130;27;20039;-71
2023/08/25 01:07:58;;;;;;;48.65;35.58;;;19.40;99.90;;;;;;5115686;27;20050;-71
2023/08/25 01:10:35;;;;;;;46.88;38.17;;;19.40;99.90;;;;;;5115088;27;20111;-71
2023/08/25 01:13:11;;;;;;;44.83;35.67;;;19.40;99.90;;;;;;5134170;27;20039;-70
2023/08/25 01:15:45;;;;;;;40.53;35.40;;;19.50;99.90;;;;;;5115338;27;20046;-73
2023/08/25 01:18:19;;;;;;;45.13;36.58;;;19.50;99.90;;;;;;5131729;27;20383;-73
2023/08/25 01:20:49;;;;;;;44.80;34.50;;;19.50;99.90;;;;;;5077754;28;20060;-73
2023/08/25 01:23:18;;;;;;;41.47;35.03;;;19.60;99.90;;;;;;5095653;27;20463;-73
2023/08/25 01:25:48;;;;;;;41.30;34.90;;;19.60;99.90;;;;;;5093875;28;20043;-71
2023/08/25 01:28:15;;;;;;;47.38;36.53;;;19.60;99.90;;;;;;5077306;28;20089;-70
2023/08/25 01:30:44;;;;;;;46.10;36.72;;;19.60;99.90;;;;;;5078068;28;20051;-71
2023/08/25 01:33:11;;;;;;;45.83;34.75;;;19.60;99.90;;;;;;5077067;28;20050;-70
2023/08/25 01:35:52;;;;;;;45.03;34.78;;;19.60;99.90;;;;;;5095253;27;20044;-70
2023/08/25 01:38:24;;;;;;;44.20;35.65;;;19.60;99.90;;;;;;5093338;28;20052;-70
2023/08/25 01:41:00;;;;;;;46.60;36.03;;;19.50;99.90;;;;;;5093864;28;20484;-70
2023/08/25 01:43:32;;;;;;;44.50;35.63;;;19.50;99.90;;;;;;5077023;28;20055;-70
2023/08/25 01:46:00;;;;;;;46.58;35.90;;;19.40;99.90;;;;;;5092944;28;20557;-70
2023/08/25 01:48:30;;;;;;;46.25;36.47;;;19.40;99.90;;;;;;5095737;28;20043;-71
2023/08/25 01:50:57;;;;;;;45.97;35.63;;;19.40;99.90;;;;;;5078117;28;20050;-71
2023/08/25 01:53:24;;;;;;;49.65;35.63;;;19.30;99.90;;;;;;5094027;27;20495;-71
2023/08/25 01:55:53;;;;;;;45.80;36.03;;;19.30;99.90;;;;;;5077594;28;20453;-71
2023/08/25 01:58:20;;;;;;;47.17;35.97;;;19.20;99.90;;;;;;5093897;28;20425;-70
2023/08/25 02:00:47;;;;;;;47.95;36.38;;;19.20;99.90;;;;;;5094594;28;20047;-72
2023/08/25 02:03:13;;;;;;;48.75;36.72;;;19.10;99.90;;;;;;5095865;28;20052;-73
2023/08/25 02:05:41;;;;;;;52.90;37.20;;;19.10;99.90;;;;;;5094539;27;20450;-73
2023/08/25 02:08:08;;;;;;;45.60;34.05;;;19.00;99.90;;;;;;5077103;28;20109;-72
2023/08/25 02:10:35;;;;;;;45.88;35.20;;;19.00;99.90;;;;;;5078509;28;20058;-72
2023/08/25 02:13:03;;;;;;;45.65;34.88;;;19.00;99.90;;;;;;5076501;27;20044;-72
2023/08/25 02:15:30;;;;;;;50.05;35.67;;;18.90;99.90;;;;;;5099332;27;20047;-72
2023/08/25 02:17:57;;;;;;;48.63;35.75;;;18.90;99.90;;;;;;5132735;27;20046;-71
2023/08/25 02:20:24;;;;;;;49.10;34.88;;;18.80;99.90;;;;;;5132086;27;20498;-71
2023/08/25 02:22:51;;;;;;;48.72;36.15;;;18.80;99.90;;;;;;5133070;27;20043;-72
2023/08/25 02:25:18;;;;;;;48.45;36.92;;;18.80;99.90;;;;;;5114020;27;20555;-72
2023/08/25 02:27:45;;;;;;;51.38;37.00;;;18.80;99.90;;;;;;5079184;28;20139;-71
2023/08/25 02:30:13;;;;;;;52.50;36.58;;;18.70;99.90;;;;;;5096046;27;20092;-72
2023/08/25 02:32:40;;;;;;;54.92;37.45;;;18.70;99.90;;;;;;5114384;27;20047;-71
2023/08/25 02:35:08;;;;;;;51.05;36.00;;;18.70;99.90;;;;;;5113269;27;20043;-70
2023/08/25 02:37:35;;;;;;;57.65;38.28;;;18.70;99.90;;;;;;5096053;28;20055;-72
2023/08/25 02:40:02;;;;;;;53.35;38.25;;;18.70;99.90;;;;;;5114198;27;20047;-72
2023/08/25 02:42:29;;;;;;;57.03;38.03;;;18.80;99.90;;;;;;5113536;27;20047;-71
2023/08/25 02:44:56;;;;;;;54.30;37.55;;;18.80;99.90;;;;;;5132736;27;20043;-73
2023/08/25 02:47:24;;;;;;;53.10;37.65;;;18.90;99.90;;;;;;5132059;27;20043;-72
2023/08/25 02:49:53;;;;;;;52.63;38.88;;;18.90;99.90;;;;;;5113347;27;20038;-72
2023/08/25 02:52:19;;;;;;;54.97;35.47;;;19.00;99.90;;;;;;5092751;28;20052;-72
2023/08/25 02:54:47;;;;;;;52.65;36.80;;;19.00;99.90;;;;;;5094448;28;20104;-71
2023/08/25 02:57:14;;;;;;;51.35;38.88;;;19.00;99.90;;;;;;5093616;28;20094;-72
2023/08/25 02:59:41;;;;;;;51.97;37.45;;;19.00;99.90;;;;;;5094150;28;20055;-72
2023/08/25 03:02:08;;;;;;;52.00;37.45;;;19.10;99.90;;;;;;5089780;27;20075;-72
2023/08/25 03:04:36;;;;;;;53.88;37.60;;;19.10;99.90;;;;;;5110682;28;20044;-72
2023/08/25 03:07:03;;;;;;;47.53;37.35;;;19.10;99.90;;;;;;5112687;28;20054;-71
2023/08/25 03:09:30;;;;;;;46.60;37.17;;;19.10;99.90;;;;;;5112319;28;20048;-72
2023/08/25 03:11:57;;;;;;;51.45;38.08;;;19.10;99.90;;;;;;5075352;28;20054;-72
2023/08/25 03:14:26;;;;;;;52.38;38.05;;;19.20;99.90;;;;;;5129574;27;20047;-71
2023/08/25 03:16:53;;;;;;;51.30;38.47;;;19.20;99.90;;;;;;5131249;28;20536;-71
2023/08/25 03:19:20;;;;;;;52.83;38.28;;;19.20;99.90;;;;;;5113636;28;20458;-71
2023/08/25 03:21:49;;;;;;;49.08;37.70;;;19.20;99.90;;;;;;5106689;28;20438;-72
2023/08/25 03:24:16;;;;;;;49.30;36.22;;;19.20;99.90;;;;;;5092997;28;20044;-72
2023/08/25 03:26:43;;;;;;;51.38;39.42;;;19.20;99.90;;;;;;5124696;28;20047;-70
2023/08/25 03:29:10;;;;;;;61.38;38.20;;;19.20;99.90;;;;;;5095389;28;20106;-72
2023/08/25 03:31:38;;;;;;;49.67;36.17;;;19.20;99.90;;;;;;5075351;28;20047;-71
2023/08/25 03:34:05;;;;;;;48.15;35.95;;;19.20;99.90;;;;;;5077045;28;20411;-71
2023/08/25 03:36:32;;;;;;;47.92;36.50;;;19.20;99.90;;;;;;5093474;28;20051;-71
2023/08/25 03:39:02;;;;;;;54.58;37.28;;;19.20;99.90;;;;;;5092657;28;20048;-72
2023/08/25 03:41:29;;;;;;;47.97;35.97;;;19.20;99.90;;;;;;5109133;28;20526;-72
2023/08/25 03:43:55;;;;;;;50.53;36.75;;;19.20;99.90;;;;;;5094199;28;20047;-72
2023/08/25 03:46:23;;;;;;;52.75;37.28;;;19.20;99.90;;;;;;5079366;28;20498;-72
2023/08/25 03:48:50;;;;;;;51.95;37.88;;;19.20;99.90;;;;;;5092215;28;20055;-72
2023/08/25 03:51:17;;;;;;;45.47;31.65;;;19.20;99.90;;;;;;5076325;28;20048;-71
2023/08/25 03:53:44;;;;;;;21.33;17.25;;;19.20;99.90;;;;;;5108541;28;20391;-72
2023/08/25 03:56:12;;;;;;;41.90;31.65;;;19.30;99.90;;;;;;5114170;28;20452;-72
2023/08/25 03:58:39;;;;;;;46.28;35.25;;;19.50;99.90;;;;;;5102122;28;20079;-71
2023/08/25 04:01:06;;;;;;;31.90;25.83;;;19.50;99.90;;;;;;5102117;28;20059;-72
2023/08/25 04:03:33;;;;;;;40.85;29.33;;;19.50;99.90;;;;;;5101174;28;20055;-72
2023/08/25 04:06:00;;;;;;;49.75;35.85;;;19.50;99.90;;;;;;5088998;28;20074;-72
2023/08/25 04:08:27;;;;;;;41.13;32.33;;;19.50;99.90;;;;;;5104744;28;20047;-72
2023/08/25 04:10:54;;;;;;;39.05;28.48;;;19.50;99.90;;;;;;5092614;28;20051;-72
2023/08/25 04:13:22;;;;;;;48.58;34.55;;;19.50;99.90;;;;;;5086443;28;20047;-72
2023/08/25 04:15:56;;;;;;;42.42;31.58;;;19.50;99.90;;;;;;5094134;28;20047;-72
2023/08/25 04:18:23;;;;;;;51.00;35.13;;;19.60;99.90;;;;;;5104982;28;20051;-71
2023/08/25 04:20:50;;;;;;;41.63;29.88;;;19.60;99.90;;;;;;5091816;28;20060;-71
2023/08/25 04:23:17;;;;;;;46.08;33.60;;;19.60;99.90;;;;;;5088761;27;20062;-71
2023/08/25 04:25:44;;;;;;;48.00;34.45;;;19.60;99.90;;;;;;5095128;28;20044;-73
2023/08/25 04:28:11;;;;;;;49.95;34.60;;;19.70;99.90;;;;;;5091793;28;20454;-72
2023/08/25 04:30:39;;;;;;;42.10;29.58;;;19.60;99.90;;;;;;5095817;28;20048;-72
2023/08/25 04:33:06;;;;;;;42.20;30.67;;;19.70;99.90;;;;;;5091448;28;20464;-72
2023/08/25 04:35:35;;;;;;;38.95;29.83;;;19.60;99.90;;;;;;5078047;28;20514;-72
2023/08/25 04:38:02;;;;;;;40.50;29.85;;;19.60;99.90;;;;;;5089114;28;20051;-72
2023/08/25 04:40:29;;;;;;;45.70;32.75;;;19.70;99.90;;;;;;5111631;27;20083;-72
2023/08/25 04:42:56;;;;;;;52.95;35.15;;;19.70;99.90;;;;;;5094266;28;20055;-72
2023/08/25 04:45:23;;;;;;;46.53;34.80;;;19.70;99.90;;;;;;5094399;28;20055;-73
2023/08/25 04:47:52;;;;;;;56.45;36.70;;;19.60;99.90;;;;;;5111627;28;20051;-72
2023/08/25 04:50:19;;;;;;;41.72;29.17;;;19.60;99.90;;;;;;5092651;28;20047;-71
2023/08/25 04:52:46;;;;;;;51.00;35.28;;;19.70;99.90;;;;;;5094309;28;20055;-71
2023/08/25 04:55:13;;;;;;;52.33;34.55;;;19.60;99.90;;;;;;5089146;28;20046;-72
2023/08/25 04:57:41;;;;;;;52.67;35.60;;;19.70;99.90;;;;;;5115425;27;20048;-72
2023/08/25 05:00:09;;;;;;;44.70;32.13;;;19.70;99.90;;;;;;5090405;28;20094;-71
2023/08/25 05:02:36;;;;;;;40.67;29.83;;;19.70;99.90;;;;;;5094833;28;20062;-71
2023/08/25 05:05:07;;;;;;;40.78;29.25;;;19.70;99.90;;;;;;5093280;28;20048;-72
2023/08/25 05:07:33;;;;;;;;;;;19.70;99.90;;;;;;5111007;27;20400;-74
2023/08/25 05:10:00;;;;;;;46.88;32.38;;;19.80;99.90;;;;;;5100526;27;19923;-72
2023/08/25 05:12:27;;;;;;;47.95;33.30;;;19.70;99.90;;;;;;5079448;28;20052;-72
2023/08/25 05:14:54;;;;;;;48.85;35.85;;;19.70;99.90;;;;;;5088465;28;20044;-71
2023/08/25 05:17:21;;;;;;;50.42;35.08;;;19.70;99.90;;;;;;5107364;27;20048;-72
2023/08/25 05:19:50;;;;;;;48.38;33.50;;;19.70;99.90;;;;;;5103751;28;20047;-72
2023/08/25 05:22:18;;;;;;;48.63;34.65;;;19.40;99.90;;;;;;5100009;28;20439;-72
2023/08/25 05:24:45;;;;;;;45.60;33.80;;;19.70;99.90;;;;;;5108446;28;20050;-72
2023/08/25 05:27:12;;;;;;;47.03;33.97;;;19.80;99.90;;;;;;5104063;28;20521;-72
2023/08/25 05:29:39;;;;;;;45.92;34.28;;;19.80;99.90;;;;;;5108169;27;20435;-70
2023/08/25 05:32:06;;;;;;;49.88;33.22;;;19.80;99.90;;;;;;5093870;28;20822;-71
2023/08/25 05:34:33;;;;;;;46.17;32.45;;;19.90;99.90;;;;;;5093209;28;20046;-70
2023/08/25 05:37:00;;;;;;;56.60;34.88;;;19.90;99.90;;;;;;5109145;27;20059;-72
2023/08/25 05:39:28;;;;;;;50.30;34.95;;;19.90;99.90;;;;;;5112293;28;20062;-72
2023/08/25 05:41:55;;;;;;;58.33;35.75;;;19.90;99.90;;;;;;5088430;28;20055;-72
2023/08/25 05:44:23;;;;;;;55.60;36.15;;;19.90;99.90;;;;;;5093757;28;20051;-71
2023/08/25 05:46:51;;;;;;;53.28;37.47;;;19.90;99.90;;;;;;5075527;27;20171;-71
2023/08/25 05:49:18;;;;;;;51.33;34.95;;;19.90;99.90;;;;;;5093997;27;20075;-71
2023/08/25 05:51:45;;;;;;;48.65;34.15;;;19.90;99.90;;;;;;5092835;28;20059;-70
2023/08/25 05:54:12;;;;;;;58.33;37.97;;;19.90;99.90;;;;;;5095283;28;20453;-71
2023/08/25 05:56:41;;;;;;;58.67;37.42;;;19.80;99.90;;;;;;5078180;28;20385;-71
2023/08/25 05:59:07;;;;;;;49.40;34.53;;;19.80;99.90;;;;;;5076067;28;20051;-72
2023/08/25 06:01:34;;;;;;;54.65;33.67;;;19.80;99.90;;;;;;5094825;27;20044;-72
2023/08/25 06:04:03;;;;;;;55.42;37.40;;;19.80;99.90;;;;;;5093480;28;20058;-72
2023/08/25 06:06:31;;;;;;;53.03;34.72;;;19.80;99.90;;;;;;5094708;28;20054;-71
2023/08/25 06:08:58;;;;;;;51.45;34.53;;;19.80;99.90;;;;;;5113553;28;20044;-71
2023/08/25 06:11:25;;;;;;;52.97;36.90;;;19.80;99.90;;;;;;5111697;28;20047;-71
2023/08/25 06:13:53;;;;;;;52.58;35.13;;;19.80;99.90;;;;;;5094682;28;20440;-70
2023/08/25 06:16:20;;;;;;;52.95;37.20;;;19.90;99.90;;;;;;5113664;28;20051;-71
2023/08/25 06:18:47;;;;;;;54.00;35.85;;;19.90;99.90;;;;;;5094452;27;20131;-70
2023/08/25 06:21:14;;;;;;;58.47;35.95;;;19.90;99.90;;;;;;5076579;28;20052;-71
2023/08/25 06:23:41;;;;;;;60.33;36.35;;;19.90;99.90;;;;;;5111264;28;20055;-71
2023/08/25 06:26:09;;;;;;;53.78;36.20;;;19.90;99.90;;;;;;5095054;28;20047;-72
2023/08/25 06:28:36;;;;;;;54.33;36.67;;;19.90;99.90;;;;;;5077185;28;20047;-71
2023/08/25 06:31:05;;;;;;;56.60;35.78;;;19.90;99.90;;;;;;5111272;28;20056;-71
2023/08/25 06:33:32;;;;;;;57.35;37.90;;;20.00;99.90;;;;;;5094056;28;20051;-71
2023/08/25 06:35:59;;;;;;;61.40;38.65;;;20.00;99.90;;;;;;5110163;28;20075;-70
2023/08/25 06:38:27;;;;;;;43.60;29.77;;;20.00;99.90;;;;;;5094193;27;20055;-70
2023/08/25 06:40:54;;;;;;;56.60;37.65;;;20.20;99.90;;;;;;5109283;28;20388;-71
2023/08/25 06:43:22;;;;;;;36.60;26.80;;;20.30;99.90;;;;;;5091863;28;20065;-71
2023/08/25 06:45:49;;;;;;;58.35;37.70;;;20.40;99.90;;;;;;5112056;28;20047;-71
2023/08/25 06:48:17;;;;;;;64.80;38.22;;;20.50;99.90;;;;;;5093985;28;20052;-72
2023/08/25 06:50:44;;;;;;;55.58;32.08;;;20.60;99.90;;;;;;5094291;28;20043;-71
2023/08/25 06:53:11;;;;;;;50.22;33.60;;;20.60;99.90;;;;;;5110953;27;20487;-71
2023/08/25 06:55:38;;;;;;;52.58;35.90;;;20.70;99.90;;;;;;5081359;28;20116;-71
2023/08/25 06:58:06;;;;;;;53.00;32.88;;;20.80;99.90;;;;;;5111093;27;20047;-71
2023/08/25 07:00:33;;;;;;;49.35;32.80;;;20.70;99.90;;;;;;5093158;28;20052;-71
2023/08/25 07:03:01;;;;;;;46.67;30.77;;;20.90;99.90;;;;;;5091144;28;20104;-71
2023/08/25 07:05:30;;;;;;;43.88;30.58;;;21.00;99.90;;;;;;5089557;28;20055;-71
2023/08/25 07:07:57;;;;;;;47.15;31.90;;;21.00;99.90;;;;;;5108100;27;20518;-73
2023/08/25 07:10:24;;;;;;;50.75;31.20;;;21.20;99.90;;;;;;5091322;28;20047;-71
2023/08/25 07:12:51;;;;;;;43.00;30.70;;;21.40;99.90;;;;;;5092608;28;20043;-73
2023/08/25 07:15:18;;;;;;;39.60;28.27;;;21.50;99.90;;;;;;5105500;28;20100;-73
2023/08/25 07:17:44;;;;;;;40.22;27.40;;;21.50;99.90;;;;;;5085398;28;20051;-73
2023/08/25 07:20:12;;;;;;;43.05;27.20;;;21.50;99.90;;;;;;5110056;28;20044;-71
2023/08/25 07:22:40;;;;;;;35.42;24.13;;;21.50;99.90;;;;;;5087141;28;20471;-72
2023/08/25 07:25:08;;;;;;;33.75;24.40;;;21.50;99.90;;;;;;5107683;28;20055;-70
2023/08/25 07:27:35;;;;;;;34.22;24.70;;;21.50;99.90;;;;;;5103107;28;20047;-72
2023/08/25 07:30:04;;;;;;;38.95;26.05;;;21.60;99.90;;;;;;5088215;28;20051;-72
2023/08/25 07:32:31;;;;;;;31.80;24.80;;;21.50;99.90;;;;;;5087622;28;20051;-71
2023/08/25 07:34:58;;;;;;;31.25;21.80;;;21.60;99.90;;;;;;5106002;28;20059;-71
2023/08/25 07:37:25;;;;;;;35.88;26.15;;;21.60;99.90;;;;;;5103314;28;20453;-72
2023/08/25 07:39:55;;;;;;;38.92;25.83;;;21.60;99.90;;;;;;5105927;28;20073;-71
2023/08/25 07:42:23;;;;;;;35.97;24.58;;;21.60;99.90;;;;;;5104824;28;20039;-71
2023/08/25 07:44:50;;;;;;;37.40;24.92;;;21.70;99.90;;;;;;5102564;28;20093;-71
2023/08/25 07:47:17;;;;;;;38.05;25.63;;;21.60;99.90;;;;;;5113167;28;20409;-70
2023/08/25 07:49:44;;;;;;;35.83;24.33;;;21.50;99.90;;;;;;5112341;27;20047;-71
2023/08/25 07:52:11;;;;;;;37.53;23.77;;;21.40;99.90;;;;;;5111143;27;20052;-70
2023/08/25 07:54:38;;;;;;;38.63;24.73;;;21.40;99.90;;;;;;5114797;28;20051;-71
2023/08/25 07:57:07;;;;;;;30.50;23.35;;;21.40;99.90;;;;;;5096652;28;20059;-70
2023/08/25 07:59:34;;;;;;;29.23;22.35;;;21.50;99.90;;;;;;5114974;27;20055;-71
2023/08/25 08:02:02;;;;;;;30.15;23.48;;;21.50;99.90;;;;;;5115260;28;20051;-71
2023/08/25 08:04:31;;;;;;;30.38;21.45;;;21.70;99.90;;;;;;5097324;28;20052;-71
2023/08/25 08:07:00;;;;;;;31.58;20.92;;;21.80;99.90;;;;;;5106180;27;20055;-71
2023/08/25 08:09:27;;;;;;;33.63;21.60;;;21.80;99.90;;;;;;5135348;27;20126;-71
2023/08/25 08:11:54;;;;;;;31.23;21.70;;;21.90;99.90;;;;;;5134360;27;20055;-71
2023/08/25 08:14:22;;;;;;;32.33;20.45;;;22.00;99.90;;;;;;5116666;27;20043;-71
2023/08/25 08:16:49;;;;;;;32.72;22.88;;;22.30;99.90;;;;;;5116654;27;20414;-71
2023/08/25 08:19:16;;;;;;;31.38;20.25;;;22.40;99.90;;;;;;5100418;27;20059;-71
2023/08/25 08:21:43;;;;;;;21.15;14.85;;;22.50;99.90;;;;;;5090489;28;20143;-71
2023/08/25 08:24:10;;;;;;;20.35;16.38;;;22.70;99.90;;;;;;5107027;27;20102;-70
2023/08/25 08:26:37;;;;;;;25.27;19.35;;;22.80;99.90;;;;;;5105086;27;20053;-72
2023/08/25 08:29:04;;;;;;;28.65;18.50;;;22.80;99.90;;;;;;5094445;28;20096;-71
2023/08/25 08:31:32;;;;;;;24.92;18.27;;;22.80;99.90;;;;;;5096379;28;20040;-72
2023/08/25 08:33:59;;;;;;;25.73;17.85;;;22.80;99.90;;;;;;5094302;28;20079;-71
2023/08/25 08:36:26;;;;;;;25.80;16.85;;;22.70;99.90;;;;;;5107641;27;20047;-72
2023/08/25 08:38:53;;;;;;;24.00;17.05;;;22.50;99.90;;;;;;5112623;28;20044;-71
2023/08/25 08:41:21;;;;;;;19.20;15.15;;;22.50;99.90;;;;;;5084726;28;20051;-71
2023/08/25 08:43:53;;;;;;;26.70;17.77;;;22.80;99.90;;;;;;5094042;28;20047;-71
2023/08/25 08:46:21;;;;;;;22.05;16.15;;;23.30;99.90;;;;;;5091759;28;20048;-71
2023/08/25 08:48:49;;;;;;;25.52;16.13;;;24.40;99.90;;;;;;5102093;27;20058;-71
2023/08/25 08:51:18;;;;;;;21.95;14.27;;;25.00;99.90;;;;;;5091624;28;20097;-71
2023/08/25 08:53:47;;;;;;;21.67;15.52;;;25.80;99.90;;;;;;5104413;27;20083;-71
2023/08/25 08:56:15;;;;;;;24.07;16.67;;;26.60;99.90;;;;;;5087453;28;20052;-71
2023/08/25 08:58:43;;;;;;;20.27;15.80;;;26.60;99.90;;;;;;5090302;28;20058;-71
2023/08/25 09:01:11;;;;;;;22.20;15.27;;;26.40;99.90;;;;;;5091503;28;20066;-71
2023/08/25 09:03:39;;;;;;;21.55;15.50;;;26.10;99.90;;;;;;5100558;28;20051;-71
2023/08/25 09:06:08;;;;;;;25.48;17.55;;;25.70;99.90;;;;;;5088859;28;20120;-71
2023/08/25 09:08:36;;;;;;;25.55;17.30;;;25.30;99.90;;;;;;5093043;28;20559;-71
2023/08/25 09:11:04;;;;;;;22.38;17.88;;;25.00;99.90;;;;;;5094305;28;20058;-71
2023/08/25 09:13:34;;;;;;;20.55;16.20;;;24.80;99.90;;;;;;5100442;27;20502;-70
2023/08/25 09:16:02;;;;;;;19.42;14.18;;;24.60;99.90;;;;;;5108097;27;20130;-70
2023/08/25 09:18:35;;;;;;;20.45;17.45;;;24.40;99.90;;;;;;5092275;28;20060;-70
2023/08/25 09:21:04;;;;;;;24.00;17.00;;;24.30;99.90;;;;;;5094178;28;20518;-70
2023/08/25 09:23:32;;;;;;;22.75;17.27;;;24.10;99.90;;;;;;5102833;27;20094;-70
2023/08/25 09:26:05;;;;;;;23.33;18.23;;;24.00;99.90;;;;;;5112624;27;20072;-70
2023/08/25 09:28:37;;;;;;;24.02;16.58;;;23.70;99.90;;;;;;5108483;27;20043;-71
2023/08/25 09:31:04;;;;;;;24.75;17.38;;;23.60;99.90;;;;;;5092100;28;20055;-71
2023/08/25 09:33:32;;;;;;;23.50;16.48;;;23.40;99.90;;;;;;5093682;28;20048;-71
2023/08/25 09:36:04;;;;;;;23.77;18.00;;;23.30;99.90;;;;;;5107774;27;20044;-71
2023/08/25 09:38:35;;;;;;;24.08;17.25;;;23.20;99.90;;;;;;5106372;28;20044;-71
2023/08/25 09:41:02;;;;;;;23.23;17.42;;;23.20;99.90;;;;;;5102789;27;20497;-70
2023/08/25 09:43:31;;;;;;;21.00;16.40;;;23.30;99.90;;;;;;5092725;28;20056;-70
2023/08/25 09:45:58;;;;;;;21.73;17.15;;;23.30;99.90;;;;;;5094601;28;20058;-71
2023/08/25 09:48:27;;;;;;;29.70;19.20;;;23.30;99.90;;;;;;5093067;28;20112;-72
2023/08/25 09:50:54;;;;;;;26.98;19.30;;;23.30;99.90;;;;;;5095953;27;20561;-71
2023/08/25 09:53:24;;;;;;;24.02;18.08;;;23.30;99.90;;;;;;5093685;28;20096;-71
2023/08/25 09:55:55;;;;;;;;;;;23.40;99.90;;;;;;5082106;28;20144;-71
2023/08/25 09:58:22;;;;;;;26.80;18.27;;;23.30;99.90;;;;;;5089238;28;19931;-71
2023/08/25 10:00:50;;;;;;;21.98;18.15;;;23.40;99.90;;;;;;5107157;28;20043;-71
2023/08/25 10:03:17;;;;;;;27.63;19.08;;;23.50;99.90;;;;;;5110183;28;20048;-71
2023/08/25 10:05:46;;;;;;;27.08;18.67;;;23.50;99.90;;;;;;5091733;28;20043;-71
2023/08/25 10:08:14;;;;;;;27.02;18.85;;;23.50;99.90;;;;;;5111372;28;20487;-71
2023/08/25 10:10:44;;;;;;;22.65;16.95;;;23.50;99.90;;;;;;5092241;28;20047;-72
2023/08/25 10:13:15;;;;;;;26.52;18.40;;;23.40;99.90;;;;;;5084481;28;20048;-71
2023/08/25 10:15:43;;;;;;;24.90;18.85;;;23.30;99.90;;;;;;5090933;28;20116;-71
2023/08/25 10:18:11;;;;;;;29.35;20.25;;;23.30;99.90;;;;;;5103163;27;20094;-71
2023/08/25 10:20:39;;;;;;;25.90;19.95;;;23.30;99.90;;;;;;5105248;28;20556;-72
2023/08/25 10:23:08;;;;;;;27.13;19.75;;;23.20;99.90;;;;;;5086314;28;20062;-72
2023/08/25 10:25:37;;;;;;;29.10;19.10;;;23.10;99.90;;;;;;5086259;28;20472;-71
2023/08/25 10:28:07;;;;;;;25.27;18.85;;;23.10;99.90;;;;;;5099668;27;20549;-71
2023/08/25 10:30:36;;;;;;;26.38;19.85;;;23.10;99.90;;;;;;5091999;28;20457;-72
2023/08/25 10:33:08;;;;;;;28.70;19.70;;;23.00;99.90;;;;;;5093160;28;20509;-71
2023/08/25 10:35:40;;;;;;;26.92;21.08;;;23.00;99.90;;;;;;5091361;28;20092;-71
2023/08/25 10:38:26;;;;;;;27.17;22.38;;;23.00;99.90;;;;;;5074299;28;20044;-71
2023/08/25 10:40:54;;;;;;;28.33;20.80;;;22.90;99.90;;;;;;5079785;28;20138;-71
2023/08/25 10:43:25;;;;;;;29.17;22.60;;;22.90;99.90;;;;;;5094046;28;20040;-71
2023/08/25 10:45:54;;;;;;;28.77;21.55;;;22.90;99.90;;;;;;5110941;28;20036;-70
2023/08/25 10:48:22;;;;;;;28.08;21.55;;;22.90;99.90;;;;;;5112375;28;20050;-71
2023/08/25 10:50:53;;;;;;;36.88;23.35;;;22.80;99.90;;;;;;5076716;27;20408;-71
2023/08/25 10:53:36;;;;;;;32.22;24.42;;;22.70;99.90;;;;;;5129301;27;20054;-71
2023/08/25 10:56:22;;;;;;;34.20;23.23;;;22.70;99.90;;;;;;5113008;27;20047;-71
2023/08/25 10:58:56;;;;;;;31.10;22.92;;;22.60;99.90;;;;;;5076849;28;20484;-70
2023/08/25 11:01:27;;;;;;;31.85;25.45;;;22.50;99.90;;;;;;5070678;28;20047;-71
2023/08/25 11:04:06;;;;;;;30.88;23.35;;;22.50;99.90;;;;;;5110744;28;20043;-70
2023/08/25 11:06:42;;;;;;;35.90;24.35;;;22.40;99.90;;;;;;5092698;28;20454;-71
2023/08/25 11:09:10;;;;;;;38.42;26.95;;;22.30;99.90;;;;;;5092570;28;20453;-69
2023/08/25 11:11:38;;;;;;;52.17;30.08;;;22.10;99.90;;;;;;5110090;28;20043;-70
2023/08/25 11:14:05;;;;;;;33.88;27.60;;;21.90;99.90;;;;;;5091690;28;20047;-71
2023/08/25 11:16:34;;;;;;;41.80;29.63;;;21.90;99.90;;;;;;5110808;28;20460;-69
2023/08/25 11:19:01;;;;;;;39.00;27.27;;;21.90;99.90;;;;;;5092216;28;20097;-73
2023/08/25 11:21:28;;;;;;;40.33;30.02;;;21.90;99.90;;;;;;5111458;28;20043;-69
2023/08/25 11:23:56;;;;;;;38.13;28.73;;;21.80;99.90;;;;;;5092827;28;20059;-70
2023/08/25 11:26:23;;;;;;;41.78;29.75;;;21.70;99.90;;;;;;5076713;28;20472;-69
2023/08/25 11:28:52;;;;;;;40.92;29.13;;;21.70;99.90;;;;;;5094679;28;20425;-70
2023/08/25 11:31:22;;;;;;;38.63;27.92;;;21.70;99.90;;;;;;5113283;28;20050;-71
2023/08/25 11:33:52;;;;;;;40.60;28.25;;;21.70;99.90;;;;;;5113554;28;20047;-69
2023/08/25 11:36:19;;;;;;;34.63;27.17;;;21.70;99.90;;;;;;5102775;28;20371;-70
2023/08/25 11:38:50;;;;;;;43.08;29.00;;;21.60;99.90;;;;;;5112871;28;20051;-70
2023/08/25 11:41:17;;;;;;;55.47;32.17;;;21.60;99.90;;;;;;5112854;28;20050;-69
2023/08/25 11:43:46;;;;;;;40.35;31.52;;;21.50;99.90;;;;;;5112850;28;20443;-70
2023/08/25 11:46:15;;;;;;;38.27;30.40;;;21.60;99.90;;;;;;5131606;28;20406;-70
2023/08/25 11:48:42;;;;;;;40.17;27.55;;;21.70;99.90;;;;;;5113114;28;20066;-70
2023/08/25 11:51:15;;;;;;;25.00;18.45;;;22.10;99.90;;;;;;5131018;28;20039;-71
2023/08/25 11:53:42;;;;;;;24.98;17.63;;;22.30;99.90;;;;;;5092280;28;20075;-70
2023/08/25 11:56:14;;;;;;;31.88;24.27;;;22.50;99.90;;;;;;5093190;28;20306;-70
2023/08/25 11:58:41;;;;;;;41.08;28.58;;;22.60;99.90;;;;;;5127918;28;20051;-71
2023/08/25 12:01:10;;;;;;;39.38;28.50;;;22.60;99.90;;;;;;5131403;28;20043;-71
2023/08/25 12:03:38;;;;;;;34.43;27.67;;;22.70;99.90;;;;;;5109901;28;20047;-70
2023/08/25 12:06:06;;;;;;;31.40;26.55;;;22.70;99.90;;;;;;5111398;28;20047;-70
2023/08/25 12:08:34;;;;;;;34.75;27.98;;;22.80;99.90;;;;;;5093870;28;20120;-70
2023/08/25 12:11:01;;;;;;;35.40;26.02;;;22.90;99.90;;;;;;5074180;28;20062;-71
2023/08/25 12:13:30;;;;;;;37.67;26.88;;;23.10;99.90;;;;;;5075934;28;20411;-70
2023/08/25 12:15:58;;;;;;;38.28;26.45;;;23.10;99.90;;;;;;5092657;28;20040;-71
2023/08/25 12:18:33;;;;;;;34.67;26.70;;;23.10;99.90;;;;;;5092454;28;20071;-70
2023/08/25 12:21:00;;;;;;;29.35;24.15;;;23.10;99.90;;;;;;5092915;28;20079;-71
2023/08/25 12:23:34;;;;;;;35.58;27.27;;;23.10;99.90;;;;;;5076432;28;20043;-71
2023/08/25 12:26:02;;;;;;;33.53;26.33;;;23.20;99.90;;;;;;5091691;28;20116;-71
2023/08/25 12:28:30;;;;;;;34.40;26.00;;;23.10;99.90;;;;;;5074282;28;20571;-70
2023/08/25 12:30:57;;;;;;;33.40;26.35;;;23.10;99.90;;;;;;5075504;28;20127;-70
2023/08/25 12:33:24;;;;;;;38.40;27.88;;;23.30;99.90;;;;;;5091764;28;20066;-71